sensor_id;sensor_type;location;lat;lon;timestamp;pressure;altitude;pressure_sealevel;temperature;humidity
48156;BME280;35568;48.104;11.782;2023-07-22T00:01:16;95424.89;;;15.88;57.29
48156;BME280;35568;48.104;11.782;2023-07-22T00:03:42;95425.58;;;15.96;57.04
48156;BME280;35568;48.104;11.782;2023-07-22T00:06:10;95428.67;;;15.55;57.50
48156;BME280;35568;48.104;11.782;2023-07-22T00:08:38;95431.38;;;15.48;57.74
48156;BME280;35568;48.104;11.782;2023-07-22T00:11:05;95429.94;;;15.68;56.84
48156;BME280;35568;48.104;11.782;2023-07-22T00:13:33;95433.00;;;16.01;56.28
48156;BME280;35568;48.104;11.782;2023-07-22T00:16:01;95438.98;;;15.67;57.02
48156;BME280;35568;48.104;11.782;2023-07-22T00:18:28;95436.79;;;15.45;57.22
48156;BME280;35568;48.104;11.782;2023-07-22T00:20:54;95436.57;;;15.58;57.39
48156;BME280;35568;48.104;11.782;2023-07-22T00:23:21;95433.90;;;15.34;57.46
48156;BME280;35568;48.104;11.782;2023-07-22T00:25:48;95435.50;;;15.28;57.24
48156;BME280;35568;48.104;11.782;2023-07-22T00:28:16;95432.75;;;15.24;57.09
48156;BME280;35568;48.104;11.782;2023-07-22T00:30:42;95430.34;;;15.49;56.92
48156;BME280;35568;48.104;11.782;2023-07-22T00:33:09;95423.96;;;15.50;56.71
48156;BME280;35568;48.104;11.782;2023-07-22T00:35:36;95426.67;;;15.32;56.71
48156;BME280;35568;48.104;11.782;2023-07-22T00:38:03;95426.64;;;15.18;56.69
48156;BME280;35568;48.104;11.782;2023-07-22T00:40:30;95424.45;;;14.91;57.28
48156;BME280;35568;48.104;11.782;2023-07-22T00:42:56;95421.76;;;15.09;57.48
48156;BME280;35568;48.104;11.782;2023-07-22T00:45:23;95417.77;;;15.03;57.52
48156;BME280;35568;48.104;11.782;2023-07-22T00:47:50;95410.60;;;15.36;57.58
48156;BME280;35568;48.104;11.782;2023-07-22T00:50:17;95405.92;;;14.95;57.69
48156;BME280;35568;48.104;11.782;2023-07-22T00:52:44;95406.20;;;14.60;58.04
48156;BME280;35568;48.104;11.782;2023-07-22T00:55:10;95408.07;;;14.81;57.93
48156;BME280;35568;48.104;11.782;2023-07-22T00:57:37;95407.86;;;15.19;58.04
48156;BME280;35568;48.104;11.782;2023-07-22T01:00:05;95405.74;;;15.02;58.03
48156;BME280;35568;48.104;11.782;2023-07-22T01:02:33;95400.17;;;15.02;58.05
48156;BME280;35568;48.104;11.782;2023-07-22T01:05:00;95403.32;;;15.20;57.84
48156;BME280;35568;48.104;11.782;2023-07-22T01:07:27;95400.72;;;15.07;57.60
48156;BME280;35568;48.104;11.782;2023-07-22T01:09:56;95398.47;;;15.15;57.79
48156;BME280;35568;48.104;11.782;2023-07-22T01:12:24;95393.32;;;15.05;57.74
48156;BME280;35568;48.104;11.782;2023-07-22T01:14:50;95393.72;;;15.05;58.02
48156;BME280;35568;48.104;11.782;2023-07-22T01:17:18;95389.92;;;14.68;57.47
48156;BME280;35568;48.104;11.782;2023-07-22T01:19:46;95393.48;;;14.86;57.33
48156;BME280;35568;48.104;11.782;2023-07-22T01:22:14;95392.66;;;15.07;57.54
48156;BME280;35568;48.104;11.782;2023-07-22T01:24:43;95391.58;;;15.25;57.58
48156;BME280;35568;48.104;11.782;2023-07-22T01:27:11;95391.25;;;15.06;57.66
48156;BME280;35568;48.104;11.782;2023-07-22T01:29:38;95387.23;;;15.05;57.42
48156;BME280;35568;48.104;11.782;2023-07-22T01:32:06;95388.26;;;15.03;57.27
48156;BME280;35568;48.104;11.782;2023-07-22T01:34:32;95390.19;;;14.89;57.54
48156;BME280;35568;48.104;11.782;2023-07-22T01:36:59;95397.98;;;14.77;57.81
48156;BME280;35568;48.104;11.782;2023-07-22T01:39:26;95404.49;;;14.61;58.45
48156;BME280;35568;48.104;11.782;2023-07-22T01:41:53;95400.26;;;14.60;58.55
48156;BME280;35568;48.104;11.782;2023-07-22T01:44:20;95401.70;;;14.26;58.81
48156;BME280;35568;48.104;11.782;2023-07-22T01:46:47;95401.32;;;14.61;58.61
48156;BME280;35568;48.104;11.782;2023-07-22T01:49:13;95403.93;;;14.76;58.74
48156;BME280;35568;48.104;11.782;2023-07-22T01:51:40;95400.66;;;14.88;58.56
48156;BME280;35568;48.104;11.782;2023-07-22T01:54:07;95395.77;;;14.74;58.24
48156;BME280;35568;48.104;11.782;2023-07-22T01:56:34;95399.75;;;14.86;58.42
48156;BME280;35568;48.104;11.782;2023-07-22T01:59:01;95398.19;;;14.81;58.33
48156;BME280;35568;48.104;11.782;2023-07-22T02:01:27;95398.35;;;14.81;58.27
48156;BME280;35568;48.104;11.782;2023-07-22T02:03:54;95404.71;;;14.72;58.33
48156;BME280;35568;48.104;11.782;2023-07-22T02:06:21;95406.94;;;14.44;58.64
48156;BME280;35568;48.104;11.782;2023-07-22T02:08:48;95406.96;;;14.53;58.70
48156;BME280;35568;48.104;11.782;2023-07-22T02:11:17;95407.15;;;14.58;58.75
48156;BME280;35568;48.104;11.782;2023-07-22T02:13:44;95412.28;;;14.45;58.58
48156;BME280;35568;48.104;11.782;2023-07-22T02:16:11;95412.74;;;14.75;58.44
48156;BME280;35568;48.104;11.782;2023-07-22T02:18:38;95408.36;;;14.55;58.28
48156;BME280;35568;48.104;11.782;2023-07-22T02:21:05;95402.96;;;14.95;58.01
48156;BME280;35568;48.104;11.782;2023-07-22T02:23:32;95404.89;;;15.12;57.69
48156;BME280;35568;48.104;11.782;2023-07-22T02:25:59;95404.73;;;14.98;57.31
48156;BME280;35568;48.104;11.782;2023-07-22T02:28:26;95408.10;;;15.15;57.35
48156;BME280;35568;48.104;11.782;2023-07-22T02:30:53;95410.61;;;14.89;58.00
48156;BME280;35568;48.104;11.782;2023-07-22T02:33:20;95410.81;;;14.73;57.69
48156;BME280;35568;48.104;11.782;2023-07-22T02:35:48;95410.20;;;15.01;57.36
48156;BME280;35568;48.104;11.782;2023-07-22T02:38:15;95410.85;;;14.98;57.23
48156;BME280;35568;48.104;11.782;2023-07-22T02:40:42;95411.31;;;14.93;57.31
48156;BME280;35568;48.104;11.782;2023-07-22T02:43:09;95414.99;;;15.16;57.11
48156;BME280;35568;48.104;11.782;2023-07-22T02:45:37;95414.89;;;15.13;57.07
48156;BME280;35568;48.104;11.782;2023-07-22T02:48:04;95413.27;;;14.86;57.38
48156;BME280;35568;48.104;11.782;2023-07-22T02:50:32;95415.62;;;14.80;57.31
48156;BME280;35568;48.104;11.782;2023-07-22T02:52:59;95417.21;;;14.62;57.70
48156;BME280;35568;48.104;11.782;2023-07-22T02:55:26;95418.11;;;14.56;57.73
48156;BME280;35568;48.104;11.782;2023-07-22T02:57:53;95420.49;;;14.41;58.05
48156;BME280;35568;48.104;11.782;2023-07-22T03:03:02;95421.06;;;14.92;57.71
48156;BME280;35568;48.104;11.782;2023-07-22T03:05:29;95420.13;;;14.39;57.70
48156;BME280;35568;48.104;11.782;2023-07-22T03:07:57;95416.34;;;14.79;57.23
48156;BME280;35568;48.104;11.782;2023-07-22T03:10:24;95416.41;;;14.88;56.72
48156;BME280;35568;48.104;11.782;2023-07-22T03:12:52;95417.87;;;14.91;56.60
48156;BME280;35568;48.104;11.782;2023-07-22T03:15:19;95420.66;;;14.61;56.55
48156;BME280;35568;48.104;11.782;2023-07-22T03:17:46;95417.53;;;14.50;57.07
48156;BME280;35568;48.104;11.782;2023-07-22T03:20:13;95420.89;;;14.25;57.84
48156;BME280;35568;48.104;11.782;2023-07-22T03:22:40;95413.89;;;14.30;57.91
48156;BME280;35568;48.104;11.782;2023-07-22T03:25:07;95414.71;;;14.14;57.74
48156;BME280;35568;48.104;11.782;2023-07-22T03:27:34;95418.60;;;14.38;57.77
48156;BME280;35568;48.104;11.782;2023-07-22T03:30:02;95420.84;;;14.27;57.59
48156;BME280;35568;48.104;11.782;2023-07-22T03:32:29;95415.77;;;14.39;57.57
48156;BME280;35568;48.104;11.782;2023-07-22T03:34:56;95417.72;;;14.37;57.49
48156;BME280;35568;48.104;11.782;2023-07-22T03:37:23;95422.08;;;13.82;57.39
48156;BME280;35568;48.104;11.782;2023-07-22T03:39:49;95422.41;;;14.17;57.60
48156;BME280;35568;48.104;11.782;2023-07-22T03:42:16;95424.18;;;14.15;57.63
48156;BME280;35568;48.104;11.782;2023-07-22T03:44:43;95428.60;;;13.75;57.97
48156;BME280;35568;48.104;11.782;2023-07-22T03:47:10;95429.69;;;13.92;58.21
48156;BME280;35568;48.104;11.782;2023-07-22T03:49:37;95431.31;;;13.86;58.35
48156;BME280;35568;48.104;11.782;2023-07-22T03:52:04;95436.43;;;13.78;58.75
48156;BME280;35568;48.104;11.782;2023-07-22T03:54:31;95437.22;;;13.83;58.70
48156;BME280;35568;48.104;11.782;2023-07-22T03:56:58;95440.35;;;13.84;58.63
48156;BME280;35568;48.104;11.782;2023-07-22T03:59:25;95445.19;;;13.85;58.66
48156;BME280;35568;48.104;11.782;2023-07-22T04:01:52;95442.62;;;14.06;58.33
48156;BME280;35568;48.104;11.782;2023-07-22T04:04:19;95441.69;;;13.92;58.32
48156;BME280;35568;48.104;11.782;2023-07-22T04:06:45;95440.91;;;14.06;57.94
48156;BME280;35568;48.104;11.782;2023-07-22T04:09:13;95439.71;;;14.14;57.61
48156;BME280;35568;48.104;11.782;2023-07-22T04:11:40;95438.87;;;14.17;57.80
48156;BME280;35568;48.104;11.782;2023-07-22T04:14:07;95439.97;;;14.35;58.03
48156;BME280;35568;48.104;11.782;2023-07-22T04:16:34;95439.76;;;13.94;58.02
48156;BME280;35568;48.104;11.782;2023-07-22T04:19:00;95444.94;;;14.11;58.31
48156;BME280;35568;48.104;11.782;2023-07-22T04:21:27;95448.26;;;14.33;58.22
48156;BME280;35568;48.104;11.782;2023-07-22T04:23:54;95456.66;;;13.89;58.39
48156;BME280;35568;48.104;11.782;2023-07-22T04:26:21;95459.32;;;14.18;58.20
48156;BME280;35568;48.104;11.782;2023-07-22T04:28:48;95457.60;;;14.57;58.20
48156;BME280;35568;48.104;11.782;2023-07-22T04:31:14;95454.88;;;14.71;57.76
48156;BME280;35568;48.104;11.782;2023-07-22T04:33:41;95452.40;;;14.50;57.99
48156;BME280;35568;48.104;11.782;2023-07-22T04:36:08;95450.40;;;14.61;57.71
48156;BME280;35568;48.104;11.782;2023-07-22T04:38:35;95452.41;;;14.51;57.80
48156;BME280;35568;48.104;11.782;2023-07-22T04:41:02;95451.86;;;14.71;57.53
48156;BME280;35568;48.104;11.782;2023-07-22T04:43:29;95448.94;;;14.87;57.56
48156;BME280;35568;48.104;11.782;2023-07-22T04:45:56;95448.69;;;15.17;57.31
48156;BME280;35568;48.104;11.782;2023-07-22T04:48:23;95446.38;;;15.23;57.24
48156;BME280;35568;48.104;11.782;2023-07-22T04:50:50;95440.54;;;15.34;56.95
48156;BME280;35568;48.104;11.782;2023-07-22T04:53:18;95442.77;;;15.21;57.01
48156;BME280;35568;48.104;11.782;2023-07-22T04:55:45;95444.09;;;15.24;57.14
48156;BME280;35568;48.104;11.782;2023-07-22T04:58:12;95453.28;;;15.17;56.86
48156;BME280;35568;48.104;11.782;2023-07-22T05:00:39;95455.55;;;15.34;57.15
48156;BME280;35568;48.104;11.782;2023-07-22T05:03:07;95455.59;;;15.63;57.11
48156;BME280;35568;48.104;11.782;2023-07-22T05:05:33;95457.07;;;15.42;57.08
48156;BME280;35568;48.104;11.782;2023-07-22T05:08:00;95457.32;;;15.25;57.05
48156;BME280;35568;48.104;11.782;2023-07-22T05:10:27;95457.16;;;15.18;56.96
48156;BME280;35568;48.104;11.782;2023-07-22T05:12:54;95457.70;;;15.52;56.67
48156;BME280;35568;48.104;11.782;2023-07-22T05:15:21;95456.09;;;15.68;56.96
48156;BME280;35568;48.104;11.782;2023-07-22T05:17:48;95456.54;;;15.70;56.77
48156;BME280;35568;48.104;11.782;2023-07-22T05:20:15;95456.51;;;16.19;56.07
48156;BME280;35568;48.104;11.782;2023-07-22T05:22:42;95458.36;;;16.26;56.10
48156;BME280;35568;48.104;11.782;2023-07-22T05:25:09;95464.23;;;16.60;55.99
48156;BME280;35568;48.104;11.782;2023-07-22T05:27:36;95468.71;;;16.28;56.09
48156;BME280;35568;48.104;11.782;2023-07-22T05:30:04;95467.37;;;16.62;55.78
48156;BME280;35568;48.104;11.782;2023-07-22T05:32:31;95471.97;;;16.56;55.82
48156;BME280;35568;48.104;11.782;2023-07-22T05:34:57;95471.08;;;16.52;56.00
48156;BME280;35568;48.104;11.782;2023-07-22T05:37:24;95471.99;;;16.54;56.03
48156;BME280;35568;48.104;11.782;2023-07-22T05:39:52;95467.49;;;16.50;56.03
48156;BME280;35568;48.104;11.782;2023-07-22T05:42:19;95463.81;;;16.21;55.66
48156;BME280;35568;48.104;11.782;2023-07-22T05:44:47;95461.46;;;17.55;54.71
48156;BME280;35568;48.104;11.782;2023-07-22T05:47:14;95464.19;;;17.65;54.74
48156;BME280;35568;48.104;11.782;2023-07-22T05:49:41;95463.27;;;18.18;54.58
48156;BME280;35568;48.104;11.782;2023-07-22T05:52:08;95463.27;;;17.98;53.70
48156;BME280;35568;48.104;11.782;2023-07-22T05:54:34;95467.17;;;17.87;54.01
48156;BME280;35568;48.104;11.782;2023-07-22T05:57:01;95474.69;;;17.71;54.04
48156;BME280;35568;48.104;11.782;2023-07-22T05:59:28;95474.84;;;17.52;54.59
48156;BME280;35568;48.104;11.782;2023-07-22T06:01:56;95473.29;;;17.69;54.47
48156;BME280;35568;48.104;11.782;2023-07-22T06:04:23;95470.56;;;18.24;53.65
48156;BME280;35568;48.104;11.782;2023-07-22T06:06:49;95473.22;;;18.30;52.85
48156;BME280;35568;48.104;11.782;2023-07-22T06:09:16;95478.49;;;18.75;52.10
48156;BME280;35568;48.104;11.782;2023-07-22T06:11:43;95477.37;;;18.97;51.58
48156;BME280;35568;48.104;11.782;2023-07-22T06:14:10;95477.06;;;18.61;50.27
48156;BME280;35568;48.104;11.782;2023-07-22T06:16:36;95475.59;;;18.75;50.83
48156;BME280;35568;48.104;11.782;2023-07-22T06:19:03;95477.04;;;19.10;48.57
48156;BME280;35568;48.104;11.782;2023-07-22T06:21:30;95481.78;;;19.33;48.59
48156;BME280;35568;48.104;11.782;2023-07-22T06:23:57;95476.93;;;19.36;49.01
48156;BME280;35568;48.104;11.782;2023-07-22T06:26:24;95476.46;;;19.63;48.08
48156;BME280;35568;48.104;11.782;2023-07-22T06:28:50;95482.81;;;19.19;48.73
48156;BME280;35568;48.104;11.782;2023-07-22T06:31:17;95486.29;;;19.52;47.92
48156;BME280;35568;48.104;11.782;2023-07-22T06:33:44;95487.83;;;19.85;47.58
48156;BME280;35568;48.104;11.782;2023-07-22T06:36:11;95489.02;;;20.38;46.53
48156;BME280;35568;48.104;11.782;2023-07-22T06:38:37;95491.63;;;20.28;46.53
48156;BME280;35568;48.104;11.782;2023-07-22T06:41:04;95495.46;;;20.31;45.91
48156;BME280;35568;48.104;11.782;2023-07-22T06:43:32;95493.32;;;20.12;45.67
48156;BME280;35568;48.104;11.782;2023-07-22T06:45:58;95490.10;;;20.48;46.11
48156;BME280;35568;48.104;11.782;2023-07-22T06:48:25;95488.85;;;20.65;44.29
48156;BME280;35568;48.104;11.782;2023-07-22T06:50:52;95486.79;;;21.17;44.46
48156;BME280;35568;48.104;11.782;2023-07-22T06:53:19;95489.51;;;21.16;43.09
48156;BME280;35568;48.104;11.782;2023-07-22T06:55:49;95488.88;;;21.27;43.33
48156;BME280;35568;48.104;11.782;2023-07-22T06:58:16;95489.11;;;21.83;42.10
48156;BME280;35568;48.104;11.782;2023-07-22T07:00:43;95485.70;;;22.02;41.22
48156;BME280;35568;48.104;11.782;2023-07-22T07:03:09;95487.32;;;22.55;40.50
48156;BME280;35568;48.104;11.782;2023-07-22T07:05:37;95494.05;;;21.96;40.95
48156;BME280;35568;48.104;11.782;2023-07-22T07:08:04;95494.67;;;21.68;40.84
48156;BME280;35568;48.104;11.782;2023-07-22T07:10:36;95497.56;;;21.95;41.20
48156;BME280;35568;48.104;11.782;2023-07-22T07:13:03;95503.82;;;21.79;41.44
48156;BME280;35568;48.104;11.782;2023-07-22T07:15:30;95503.13;;;22.28;40.30
48156;BME280;35568;48.104;11.782;2023-07-22T07:17:57;95499.63;;;22.53;40.14
48156;BME280;35568;48.104;11.782;2023-07-22T07:20:24;95501.39;;;22.08;38.58
48156;BME280;35568;48.104;11.782;2023-07-22T07:22:50;95503.17;;;22.30;37.14
48156;BME280;35568;48.104;11.782;2023-07-22T07:25:17;95508.04;;;22.53;37.11
48156;BME280;35568;48.104;11.782;2023-07-22T07:27:44;95507.70;;;22.36;37.92
48156;BME280;35568;48.104;11.782;2023-07-22T07:30:11;95510.62;;;22.17;37.34
48156;BME280;35568;48.104;11.782;2023-07-22T07:32:38;95510.10;;;22.71;36.89
48156;BME280;35568;48.104;11.782;2023-07-22T07:35:07;95506.76;;;22.56;35.86
48156;BME280;35568;48.104;11.782;2023-07-22T07:37:34;95500.20;;;23.37;34.82
48156;BME280;35568;48.104;11.782;2023-07-22T07:40:02;95501.19;;;23.29;35.05
48156;BME280;35568;48.104;11.782;2023-07-22T07:42:29;95506.21;;;23.44;33.63
48156;BME280;35568;48.104;11.782;2023-07-22T07:44:56;95504.60;;;24.06;33.47
48156;BME280;35568;48.104;11.782;2023-07-22T07:47:22;95504.33;;;24.13;33.27
48156;BME280;35568;48.104;11.782;2023-07-22T07:49:49;95508.31;;;24.19;34.02
48156;BME280;35568;48.104;11.782;2023-07-22T07:52:16;95510.22;;;24.56;34.20
48156;BME280;35568;48.104;11.782;2023-07-22T07:54:43;95510.23;;;25.41;33.12
48156;BME280;35568;48.104;11.782;2023-07-22T07:57:09;95512.01;;;25.35;32.47
48156;BME280;35568;48.104;11.782;2023-07-22T07:59:36;95513.30;;;25.67;32.05
48156;BME280;35568;48.104;11.782;2023-07-22T08:02:04;95511.99;;;25.53;31.69
48156;BME280;35568;48.104;11.782;2023-07-22T08:04:31;95509.38;;;25.45;32.09
48156;BME280;35568;48.104;11.782;2023-07-22T08:06:57;95513.08;;;25.24;31.94
48156;BME280;35568;48.104;11.782;2023-07-22T08:09:24;95510.43;;;25.50;31.40
48156;BME280;35568;48.104;11.782;2023-07-22T08:11:51;95511.63;;;25.67;30.85
48156;BME280;35568;48.104;11.782;2023-07-22T08:14:18;95512.25;;;25.79;31.09
48156;BME280;35568;48.104;11.782;2023-07-22T08:16:44;95515.98;;;25.42;31.17
48156;BME280;35568;48.104;11.782;2023-07-22T08:19:11;95517.07;;;25.02;30.77
48156;BME280;35568;48.104;11.782;2023-07-22T08:21:38;95512.89;;;26.01;29.09
48156;BME280;35568;48.104;11.782;2023-07-22T08:24:05;95513.12;;;26.71;28.39
48156;BME280;35568;48.104;11.782;2023-07-22T08:26:32;95516.52;;;26.22;28.25
48156;BME280;35568;48.104;11.782;2023-07-22T08:28:59;95518.80;;;25.89;27.87
48156;BME280;35568;48.104;11.782;2023-07-22T08:31:26;95517.42;;;26.29;28.62
48156;BME280;35568;48.104;11.782;2023-07-22T08:33:53;95510.44;;;26.58;28.35
48156;BME280;35568;48.104;11.782;2023-07-22T08:36:19;95513.28;;;27.54;27.85
48156;BME280;35568;48.104;11.782;2023-07-22T08:38:46;95513.84;;;27.89;26.98
48156;BME280;35568;48.104;11.782;2023-07-22T08:41:14;95513.61;;;27.56;25.48
48156;BME280;35568;48.104;11.782;2023-07-22T08:43:42;95513.11;;;27.23;25.40
48156;BME280;35568;48.104;11.782;2023-07-22T08:46:12;95512.13;;;27.08;25.33
48156;BME280;35568;48.104;11.782;2023-07-22T08:48:42;95512.57;;;26.92;25.71
48156;BME280;35568;48.104;11.782;2023-07-22T08:51:12;95512.91;;;27.45;26.17
48156;BME280;35568;48.104;11.782;2023-07-22T08:53:42;95509.66;;;28.02;25.37
48156;BME280;35568;48.104;11.782;2023-07-22T08:56:09;95503.90;;;28.29;25.61
48156;BME280;35568;48.104;11.782;2023-07-22T08:58:37;95503.91;;;28.61;24.92
48156;BME280;35568;48.104;11.782;2023-07-22T09:01:05;95502.65;;;28.67;24.62
48156;BME280;35568;48.104;11.782;2023-07-22T09:03:33;95505.28;;;28.60;24.74
48156;BME280;35568;48.104;11.782;2023-07-22T09:06:00;95504.34;;;28.17;24.47
48156;BME280;35568;48.104;11.782;2023-07-22T09:08:28;95504.74;;;27.77;24.92
48156;BME280;35568;48.104;11.782;2023-07-22T09:10:55;95499.52;;;28.61;23.99
48156;BME280;35568;48.104;11.782;2023-07-22T09:13:23;95500.84;;;29.07;24.15
48156;BME280;35568;48.104;11.782;2023-07-22T09:15:51;95495.67;;;29.66;23.82
48156;BME280;35568;48.104;11.782;2023-07-22T09:18:19;95499.19;;;29.22;23.03
48156;BME280;35568;48.104;11.782;2023-07-22T09:20:45;95493.49;;;29.02;22.93
48156;BME280;35568;48.104;11.782;2023-07-22T09:23:13;95494.88;;;28.37;23.79
48156;BME280;35568;48.104;11.782;2023-07-22T09:25:40;95489.21;;;29.23;23.02
48156;BME280;35568;48.104;11.782;2023-07-22T09:28:07;95492.21;;;29.31;22.75
48156;BME280;35568;48.104;11.782;2023-07-22T09:30:36;95488.95;;;28.85;22.59
48156;BME280;35568;48.104;11.782;2023-07-22T09:33:06;95489.37;;;29.35;22.62
48156;BME280;35568;48.104;11.782;2023-07-22T09:35:45;95486.31;;;28.32;22.87
48156;BME280;35568;48.104;11.782;2023-07-22T09:38:13;95483.60;;;27.87;23.21
48156;BME280;35568;48.104;11.782;2023-07-22T09:40:41;95484.36;;;28.54;22.72
48156;BME280;35568;48.104;11.782;2023-07-22T09:43:10;95485.78;;;29.17;22.44
48156;BME280;35568;48.104;11.782;2023-07-22T09:45:37;95484.87;;;29.03;22.47
48156;BME280;35568;48.104;11.782;2023-07-22T09:48:04;95481.94;;;28.70;22.58
48156;BME280;35568;48.104;11.782;2023-07-22T09:50:32;95481.66;;;28.46;23.50
48156;BME280;35568;48.104;11.782;2023-07-22T09:52:59;95478.20;;;28.04;22.52
48156;BME280;35568;48.104;11.782;2023-07-22T09:55:27;95478.09;;;29.08;22.92
48156;BME280;35568;48.104;11.782;2023-07-22T09:57:56;95479.58;;;29.26;22.12
48156;BME280;35568;48.104;11.782;2023-07-22T10:00:25;95483.00;;;29.25;21.04
48156;BME280;35568;48.104;11.782;2023-07-22T10:02:56;95480.66;;;29.35;21.65
48156;BME280;35568;48.104;11.782;2023-07-22T10:05:25;95475.88;;;30.08;21.21
48156;BME280;35568;48.104;11.782;2023-07-22T10:07:53;95475.58;;;29.93;20.32
48156;BME280;35568;48.104;11.782;2023-07-22T10:10:24;95465.15;;;30.99;20.45
48156;BME280;35568;48.104;11.782;2023-07-22T10:12:53;95471.47;;;30.64;20.42
48156;BME280;35568;48.104;11.782;2023-07-22T10:15:20;95468.34;;;30.38;19.93
48156;BME280;35568;48.104;11.782;2023-07-22T10:17:47;95467.10;;;28.94;20.94
48156;BME280;35568;48.104;11.782;2023-07-22T10:20:14;95460.10;;;29.52;21.16
48156;BME280;35568;48.104;11.782;2023-07-22T10:22:42;95457.00;;;29.88;21.44
48156;BME280;35568;48.104;11.782;2023-07-22T10:25:11;95458.06;;;30.77;20.95
48156;BME280;35568;48.104;11.782;2023-07-22T10:27:39;95456.98;;;30.65;20.12
48156;BME280;35568;48.104;11.782;2023-07-22T10:30:08;95457.53;;;30.72;20.32
48156;BME280;35568;48.104;11.782;2023-07-22T10:32:36;95458.63;;;30.86;20.02
48156;BME280;35568;48.104;11.782;2023-07-22T10:35:07;95455.43;;;31.05;18.80
48156;BME280;35568;48.104;11.782;2023-07-22T10:37:34;95453.43;;;32.01;18.56
48156;BME280;35568;48.104;11.782;2023-07-22T10:40:16;95453.75;;;32.29;18.00
48156;BME280;35568;48.104;11.782;2023-07-22T10:42:52;95452.29;;;33.42;18.56
48156;BME280;35568;48.104;11.782;2023-07-22T10:45:28;95454.26;;;32.95;18.20
48156;BME280;35568;48.104;11.782;2023-07-22T10:48:06;95450.65;;;31.65;18.99
48156;BME280;35568;48.104;11.782;2023-07-22T10:50:42;95443.23;;;31.37;19.12
48156;BME280;35568;48.104;11.782;2023-07-22T10:53:10;95443.88;;;30.58;19.71
48156;BME280;35568;48.104;11.782;2023-07-22T10:56:43;95436.54;;;30.09;19.83
48156;BME280;35568;48.104;11.782;2023-07-22T10:59:11;95433.38;;;30.37;19.86
48156;BME280;35568;48.104;11.782;2023-07-22T11:01:38;95436.30;;;30.87;20.26
48156;BME280;35568;48.104;11.782;2023-07-22T11:04:07;95432.45;;;30.45;19.47
48156;BME280;35568;48.104;11.782;2023-07-22T11:06:36;95430.35;;;30.42;20.25
48156;BME280;35568;48.104;11.782;2023-07-22T11:09:03;95426.90;;;30.73;20.19
48156;BME280;35568;48.104;11.782;2023-07-22T11:11:39;95423.68;;;30.57;20.47
48156;BME280;35568;48.104;11.782;2023-07-22T11:14:15;95414.62;;;31.31;20.83
48156;BME280;35568;48.104;11.782;2023-07-22T11:16:44;95419.78;;;31.78;19.98
48156;BME280;35568;48.104;11.782;2023-07-22T11:19:12;95422.03;;;31.81;19.23
48156;BME280;35568;48.104;11.782;2023-07-22T11:21:40;95409.59;;;31.31;18.57
48156;BME280;35568;48.104;11.782;2023-07-22T11:24:07;95413.54;;;31.04;19.96
48156;BME280;35568;48.104;11.782;2023-07-22T11:26:34;95412.86;;;31.25;19.74
48156;BME280;35568;48.104;11.782;2023-07-22T11:29:03;95410.58;;;30.90;19.90
48156;BME280;35568;48.104;11.782;2023-07-22T11:31:31;95404.86;;;30.63;19.50
48156;BME280;35568;48.104;11.782;2023-07-22T11:33:58;95400.00;;;31.34;19.58
48156;BME280;35568;48.104;11.782;2023-07-22T11:36:25;95396.78;;;32.14;18.90
48156;BME280;35568;48.104;11.782;2023-07-22T11:38:52;95395.09;;;31.99;18.45
48156;BME280;35568;48.104;11.782;2023-07-22T11:41:20;95391.63;;;31.56;19.26
48156;BME280;35568;48.104;11.782;2023-07-22T11:43:47;95388.02;;;30.79;20.01
48156;BME280;35568;48.104;11.782;2023-07-22T11:46:13;95391.17;;;29.13;19.85
48156;BME280;35568;48.104;11.782;2023-07-22T11:48:49;95390.89;;;29.48;20.09
48156;BME280;35568;48.104;11.782;2023-07-22T11:51:17;95384.95;;;29.51;20.08
48156;BME280;35568;48.104;11.782;2023-07-22T11:53:46;95371.49;;;30.11;20.28
48156;BME280;35568;48.104;11.782;2023-07-22T11:56:18;95368.11;;;29.96;20.40
48156;BME280;35568;48.104;11.782;2023-07-22T11:58:49;95373.72;;;30.73;19.85
48156;BME280;35568;48.104;11.782;2023-07-22T12:01:16;95368.09;;;29.98;20.13
48156;BME280;35568;48.104;11.782;2023-07-22T12:03:42;95366.54;;;29.96;20.06
48156;BME280;35568;48.104;11.782;2023-07-22T12:06:10;95363.69;;;31.58;19.91
48156;BME280;35568;48.104;11.782;2023-07-22T12:08:43;95363.01;;;32.59;18.63
48156;BME280;35568;48.104;11.782;2023-07-22T12:11:16;95359.77;;;33.14;17.73
48156;BME280;35568;48.104;11.782;2023-07-22T12:13:44;95355.24;;;33.34;17.88
48156;BME280;35568;48.104;11.782;2023-07-22T12:16:11;95352.95;;;33.21;16.93
48156;BME280;35568;48.104;11.782;2023-07-22T12:18:42;95352.65;;;33.39;17.26
48156;BME280;35568;48.104;11.782;2023-07-22T12:21:09;95345.92;;;34.02;17.14
48156;BME280;35568;48.104;11.782;2023-07-22T12:23:36;95350.04;;;34.63;16.14
48156;BME280;35568;48.104;11.782;2023-07-22T12:26:03;95350.01;;;34.60;16.36
48156;BME280;35568;48.104;11.782;2023-07-22T12:28:30;95341.59;;;33.34;17.38
48156;BME280;35568;48.104;11.782;2023-07-22T12:30:57;95350.69;;;33.32;17.48
48156;BME280;35568;48.104;11.782;2023-07-22T12:33:24;95346.99;;;32.68;17.52
48156;BME280;35568;48.104;11.782;2023-07-22T12:35:53;95347.60;;;33.21;17.02
48156;BME280;35568;48.104;11.782;2023-07-22T12:38:20;95349.47;;;33.06;17.16
48156;BME280;35568;48.104;11.782;2023-07-22T12:40:47;95341.61;;;32.45;17.19
48156;BME280;35568;48.104;11.782;2023-07-22T12:43:13;95344.47;;;31.98;18.31
48156;BME280;35568;48.104;11.782;2023-07-22T12:45:41;95346.34;;;31.83;18.18
48156;BME280;35568;48.104;11.782;2023-07-22T12:48:08;95347.83;;;30.88;18.85
48156;BME280;35568;48.104;11.782;2023-07-22T12:50:36;95351.13;;;30.32;19.27
48156;BME280;35568;48.104;11.782;2023-07-22T12:53:02;95342.69;;;29.87;19.88
48156;BME280;35568;48.104;11.782;2023-07-22T12:55:29;95344.22;;;30.20;20.04